sensor_id;sensor_type;location;lat;lon;timestamp;P1;durP1;ratioP1;P2;durP2;ratioP2
23080;SDS011;72373;50.562;8.498;2024-03-08T00:02:02;32.40;;;17.48;;
23080;SDS011;72373;50.562;8.498;2024-03-08T00:04:28;31.13;;;16.17;;
23080;SDS011;72373;50.562;8.498;2024-03-08T00:06:54;32.20;;;16.42;;
23080;SDS011;72373;50.562;8.498;2024-03-08T00:09:19;28.33;;;15.98;;
23080;SDS011;72373;50.562;8.498;2024-03-08T00:11:46;30.77;;;15.85;;
23080;SDS011;72373;50.562;8.498;2024-03-08T00:14:12;29.55;;;16.33;;
23080;SDS011;72373;50.562;8.498;2024-03-08T00:16:37;32.53;;;16.65;;
23080;SDS011;72373;50.562;8.498;2024-03-08T00:19:03;33.30;;;16.88;;
23080;SDS011;72373;50.562;8.498;2024-03-08T00:21:29;31.33;;;15.77;;
23080;SDS011;72373;50.562;8.498;2024-03-08T00:23:54;30.92;;;15.63;;
23080;SDS011;72373;50.562;8.498;2024-03-08T00:26:20;31.60;;;15.65;;
23080;SDS011;72373;50.562;8.498;2024-03-08T00:28:47;32.53;;;15.70;;
23080;SDS011;72373;50.562;8.498;2024-03-08T00:31:14;31.20;;;16.00;;
23080;SDS011;72373;50.562;8.498;2024-03-08T00:33:41;30.15;;;15.63;;
23080;SDS011;72373;50.562;8.498;2024-03-08T00:36:07;32.08;;;16.25;;
23080;SDS011;72373;50.562;8.498;2024-03-08T00:38:33;28.73;;;15.80;;
23080;SDS011;72373;50.562;8.498;2024-03-08T00:40:59;29.23;;;16.05;;
23080;SDS011;72373;50.562;8.498;2024-03-08T00:43:25;29.20;;;15.93;;
23080;SDS011;72373;50.562;8.498;2024-03-08T00:45:50;32.90;;;16.00;;
23080;SDS011;72373;50.562;8.498;2024-03-08T00:48:16;30.75;;;16.10;;
23080;SDS011;72373;50.562;8.498;2024-03-08T00:50:42;30.13;;;16.15;;
23080;SDS011;72373;50.562;8.498;2024-03-08T00:53:10;32.00;;;16.05;;
23080;SDS011;72373;50.562;8.498;2024-03-08T00:55:36;31.58;;;16.33;;
23080;SDS011;72373;50.562;8.498;2024-03-08T00:58:03;33.72;;;16.17;;
23080;SDS011;72373;50.562;8.498;2024-03-08T01:00:29;34.92;;;17.08;;
23080;SDS011;72373;50.562;8.498;2024-03-08T01:02:54;34.30;;;16.02;;
23080;SDS011;72373;50.562;8.498;2024-03-08T01:05:20;35.13;;;17.05;;
23080;SDS011;72373;50.562;8.498;2024-03-08T01:07:46;33.90;;;16.85;;
23080;SDS011;72373;50.562;8.498;2024-03-08T01:10:11;31.25;;;16.33;;
23080;SDS011;72373;50.562;8.498;2024-03-08T01:12:38;31.67;;;16.20;;
23080;SDS011;72373;50.562;8.498;2024-03-08T01:15:04;35.35;;;17.98;;
23080;SDS011;72373;50.562;8.498;2024-03-08T01:17:30;37.25;;;18.00;;
23080;SDS011;72373;50.562;8.498;2024-03-08T01:19:56;31.30;;;17.10;;
23080;SDS011;72373;50.562;8.498;2024-03-08T01:22:21;31.80;;;17.10;;
23080;SDS011;72373;50.562;8.498;2024-03-08T01:24:47;33.95;;;17.85;;
23080;SDS011;72373;50.562;8.498;2024-03-08T01:27:13;36.28;;;17.30;;
23080;SDS011;72373;50.562;8.498;2024-03-08T01:29:39;32.40;;;17.25;;
23080;SDS011;72373;50.562;8.498;2024-03-08T01:32:04;39.80;;;18.05;;
23080;SDS011;72373;50.562;8.498;2024-03-08T01:34:31;37.60;;;16.77;;
23080;SDS011;72373;50.562;8.498;2024-03-08T01:36:58;37.05;;;18.67;;
23080;SDS011;72373;50.562;8.498;2024-03-08T01:39:24;34.38;;;17.25;;
23080;SDS011;72373;50.562;8.498;2024-03-08T01:41:50;34.60;;;16.95;;
23080;SDS011;72373;50.562;8.498;2024-03-08T01:44:16;30.08;;;16.33;;
23080;SDS011;72373;50.562;8.498;2024-03-08T01:46:45;31.73;;;16.70;;
23080;SDS011;72373;50.562;8.498;2024-03-08T01:49:12;32.50;;;17.23;;
23080;SDS011;72373;50.562;8.498;2024-03-08T01:51:39;31.45;;;16.15;;
23080;SDS011;72373;50.562;8.498;2024-03-08T01:54:06;33.10;;;16.80;;
23080;SDS011;72373;50.562;8.498;2024-03-08T01:56:35;32.28;;;16.05;;
23080;SDS011;72373;50.562;8.498;2024-03-08T01:59:01;33.92;;;17.58;;
23080;SDS011;72373;50.562;8.498;2024-03-08T02:01:27;29.30;;;15.50;;
23080;SDS011;72373;50.562;8.498;2024-03-08T02:03:53;34.00;;;17.27;;
23080;SDS011;72373;50.562;8.498;2024-03-08T02:06:19;32.10;;;16.98;;
23080;SDS011;72373;50.562;8.498;2024-03-08T02:08:45;33.13;;;16.83;;
23080;SDS011;72373;50.562;8.498;2024-03-08T02:11:11;29.95;;;16.52;;
23080;SDS011;72373;50.562;8.498;2024-03-08T02:13:37;36.65;;;17.50;;
23080;SDS011;72373;50.562;8.498;2024-03-08T02:16:03;36.92;;;17.60;;
23080;SDS011;72373;50.562;8.498;2024-03-08T02:18:29;39.30;;;17.25;;
23080;SDS011;72373;50.562;8.498;2024-03-08T02:20:56;31.75;;;16.08;;
23080;SDS011;72373;50.562;8.498;2024-03-08T02:23:22;35.63;;;17.15;;
23080;SDS011;72373;50.562;8.498;2024-03-08T02:25:52;35.58;;;17.83;;
23080;SDS011;72373;50.562;8.498;2024-03-08T02:28:18;30.05;;;15.73;;
23080;SDS011;72373;50.562;8.498;2024-03-08T02:30:45;32.70;;;17.30;;
23080;SDS011;72373;50.562;8.498;2024-03-08T02:33:14;34.20;;;16.98;;
23080;SDS011;72373;50.562;8.498;2024-03-08T02:35:46;32.63;;;17.35;;
23080;SDS011;72373;50.562;8.498;2024-03-08T02:38:13;33.90;;;17.23;;
23080;SDS011;72373;50.562;8.498;2024-03-08T02:40:43;33.20;;;17.17;;
23080;SDS011;72373;50.562;8.498;2024-03-08T02:43:10;29.92;;;15.95;;
23080;SDS011;72373;50.562;8.498;2024-03-08T02:45:37;30.77;;;16.50;;
23080;SDS011;72373;50.562;8.498;2024-03-08T02:48:03;32.50;;;17.05;;
23080;SDS011;72373;50.562;8.498;2024-03-08T02:50:31;34.95;;;17.30;;
23080;SDS011;72373;50.562;8.498;2024-03-08T02:52:57;32.35;;;16.35;;
23080;SDS011;72373;50.562;8.498;2024-03-08T02:55:22;29.90;;;15.88;;
23080;SDS011;72373;50.562;8.498;2024-03-08T02:57:50;34.13;;;16.38;;
23080;SDS011;72373;50.562;8.498;2024-03-08T03:00:17;35.28;;;17.88;;
23080;SDS011;72373;50.562;8.498;2024-03-08T03:02:44;36.35;;;17.65;;
23080;SDS011;72373;50.562;8.498;2024-03-08T03:05:11;35.95;;;17.85;;
23080;SDS011;72373;50.562;8.498;2024-03-08T03:07:36;40.13;;;19.42;;
23080;SDS011;72373;50.562;8.498;2024-03-08T03:10:02;35.10;;;18.20;;
23080;SDS011;72373;50.562;8.498;2024-03-08T03:12:28;37.35;;;17.52;;
23080;SDS011;72373;50.562;8.498;2024-03-08T03:14:55;39.15;;;19.02;;
23080;SDS011;72373;50.562;8.498;2024-03-08T03:17:21;37.15;;;18.00;;
23080;SDS011;72373;50.562;8.498;2024-03-08T03:19:50;36.22;;;17.85;;
23080;SDS011;72373;50.562;8.498;2024-03-08T03:22:19;34.08;;;17.05;;
23080;SDS011;72373;50.562;8.498;2024-03-08T03:24:45;35.28;;;17.27;;
23080;SDS011;72373;50.562;8.498;2024-03-08T03:27:11;36.58;;;18.10;;
23080;SDS011;72373;50.562;8.498;2024-03-08T03:29:38;40.05;;;18.02;;
23080;SDS011;72373;50.562;8.498;2024-03-08T03:32:13;39.40;;;18.73;;
23080;SDS011;72373;50.562;8.498;2024-03-08T03:34:39;36.13;;;18.23;;
23080;SDS011;72373;50.562;8.498;2024-03-08T03:37:05;36.25;;;18.15;;
23080;SDS011;72373;50.562;8.498;2024-03-08T03:39:37;37.83;;;18.10;;
23080;SDS011;72373;50.562;8.498;2024-03-08T03:42:16;33.97;;;17.77;;
23080;SDS011;72373;50.562;8.498;2024-03-08T03:44:46;40.15;;;18.20;;
23080;SDS011;72373;50.562;8.498;2024-03-08T03:47:13;36.85;;;18.30;;
23080;SDS011;72373;50.562;8.498;2024-03-08T03:49:41;34.25;;;17.77;;
23080;SDS011;72373;50.562;8.498;2024-03-08T03:52:07;39.05;;;18.90;;
23080;SDS011;72373;50.562;8.498;2024-03-08T03:54:33;36.47;;;18.05;;
23080;SDS011;72373;50.562;8.498;2024-03-08T03:56:59;36.38;;;18.98;;
23080;SDS011;72373;50.562;8.498;2024-03-08T03:59:25;36.25;;;18.35;;
23080;SDS011;72373;50.562;8.498;2024-03-08T04:01:52;40.33;;;19.38;;
23080;SDS011;72373;50.562;8.498;2024-03-08T04:04:18;34.05;;;16.40;;
23080;SDS011;72373;50.562;8.498;2024-03-08T04:06:43;35.38;;;17.80;;
23080;SDS011;72373;50.562;8.498;2024-03-08T04:09:10;38.10;;;18.27;;
23080;SDS011;72373;50.562;8.498;2024-03-08T04:11:37;33.70;;;18.00;;
23080;SDS011;72373;50.562;8.498;2024-03-08T04:14:03;40.88;;;19.58;;
23080;SDS011;72373;50.562;8.498;2024-03-08T04:16:30;39.85;;;19.60;;
23080;SDS011;72373;50.562;8.498;2024-03-08T04:18:56;39.05;;;19.25;;
23080;SDS011;72373;50.562;8.498;2024-03-08T04:21:22;38.53;;;18.38;;
23080;SDS011;72373;50.562;8.498;2024-03-08T04:23:48;39.10;;;19.65;;
23080;SDS011;72373;50.562;8.498;2024-03-08T04:26:13;36.47;;;19.05;;
23080;SDS011;72373;50.562;8.498;2024-03-08T04:28:39;41.30;;;20.77;;
23080;SDS011;72373;50.562;8.498;2024-03-08T04:31:04;45.47;;;21.35;;
23080;SDS011;72373;50.562;8.498;2024-03-08T04:33:31;40.33;;;20.23;;
23080;SDS011;72373;50.562;8.498;2024-03-08T04:35:57;42.17;;;20.60;;
23080;SDS011;72373;50.562;8.498;2024-03-08T04:38:23;45.17;;;20.58;;
23080;SDS011;72373;50.562;8.498;2024-03-08T04:40:49;45.78;;;20.80;;
23080;SDS011;72373;50.562;8.498;2024-03-08T04:43:15;42.35;;;20.25;;
23080;SDS011;72373;50.562;8.498;2024-03-08T04:45:43;43.45;;;21.40;;
23080;SDS011;72373;50.562;8.498;2024-03-08T04:48:09;40.05;;;19.23;;
23080;SDS011;72373;50.562;8.498;2024-03-08T04:50:34;38.10;;;17.38;;
23080;SDS011;72373;50.562;8.498;2024-03-08T04:53:00;38.67;;;20.80;;
23080;SDS011;72373;50.562;8.498;2024-03-08T04:55:26;42.83;;;19.38;;
23080;SDS011;72373;50.562;8.498;2024-03-08T04:57:51;43.30;;;19.00;;
23080;SDS011;72373;50.562;8.498;2024-03-08T05:00:17;42.38;;;19.65;;
23080;SDS011;72373;50.562;8.498;2024-03-08T05:02:44;41.63;;;20.05;;
23080;SDS011;72373;50.562;8.498;2024-03-08T05:05:09;41.63;;;20.95;;
23080;SDS011;72373;50.562;8.498;2024-03-08T05:07:37;40.55;;;19.13;;
23080;SDS011;72373;50.562;8.498;2024-03-08T05:10:04;40.00;;;18.83;;
23080;SDS011;72373;50.562;8.498;2024-03-08T05:12:31;40.33;;;19.33;;
23080;SDS011;72373;50.562;8.498;2024-03-08T05:14:57;37.05;;;18.95;;
23080;SDS011;72373;50.562;8.498;2024-03-08T05:17:23;37.42;;;18.63;;
23080;SDS011;72373;50.562;8.498;2024-03-08T05:19:49;41.20;;;19.77;;
23080;SDS011;72373;50.562;8.498;2024-03-08T05:22:15;42.63;;;19.52;;
23080;SDS011;72373;50.562;8.498;2024-03-08T05:24:40;41.88;;;20.05;;
23080;SDS011;72373;50.562;8.498;2024-03-08T05:27:06;44.50;;;19.60;;
23080;SDS011;72373;50.562;8.498;2024-03-08T05:29:32;41.47;;;19.42;;
23080;SDS011;72373;50.562;8.498;2024-03-08T05:31:58;41.72;;;19.15;;
23080;SDS011;72373;50.562;8.498;2024-03-08T05:34:24;38.03;;;20.10;;
23080;SDS011;72373;50.562;8.498;2024-03-08T05:36:51;44.10;;;20.77;;
23080;SDS011;72373;50.562;8.498;2024-03-08T05:39:17;41.83;;;19.85;;
23080;SDS011;72373;50.562;8.498;2024-03-08T05:41:44;35.58;;;18.45;;
23080;SDS011;72373;50.562;8.498;2024-03-08T05:44:10;44.70;;;19.40;;
23080;SDS011;72373;50.562;8.498;2024-03-08T05:46:36;42.63;;;19.92;;
23080;SDS011;72373;50.562;8.498;2024-03-08T05:49:02;43.30;;;19.90;;
23080;SDS011;72373;50.562;8.498;2024-03-08T05:51:35;42.03;;;19.55;;
23080;SDS011;72373;50.562;8.498;2024-03-08T05:54:04;41.55;;;20.50;;
23080;SDS011;72373;50.562;8.498;2024-03-08T05:56:31;39.20;;;19.08;;
23080;SDS011;72373;50.562;8.498;2024-03-08T05:58:57;45.65;;;20.08;;
23080;SDS011;72373;50.562;8.498;2024-03-08T06:01:23;43.08;;;20.33;;
23080;SDS011;72373;50.562;8.498;2024-03-08T06:03:53;44.22;;;20.27;;
23080;SDS011;72373;50.562;8.498;2024-03-08T06:06:20;42.20;;;20.25;;
23080;SDS011;72373;50.562;8.498;2024-03-08T06:08:47;39.08;;;19.80;;
23080;SDS011;72373;50.562;8.498;2024-03-08T06:11:14;49.80;;;21.80;;
23080;SDS011;72373;50.562;8.498;2024-03-08T06:13:40;39.63;;;19.45;;
23080;SDS011;72373;50.562;8.498;2024-03-08T06:16:06;45.97;;;21.60;;
23080;SDS011;72373;50.562;8.498;2024-03-08T06:18:33;44.17;;;19.73;;
23080;SDS011;72373;50.562;8.498;2024-03-08T06:21:01;40.40;;;18.40;;
23080;SDS011;72373;50.562;8.498;2024-03-08T06:23:27;43.72;;;20.67;;
23080;SDS011;72373;50.562;8.498;2024-03-08T06:25:53;40.28;;;20.42;;
23080;SDS011;72373;50.562;8.498;2024-03-08T06:28:19;39.90;;;18.98;;
23080;SDS011;72373;50.562;8.498;2024-03-08T06:30:45;42.25;;;19.80;;
23080;SDS011;72373;50.562;8.498;2024-03-08T06:33:10;42.30;;;20.55;;
23080;SDS011;72373;50.562;8.498;2024-03-08T06:35:36;41.83;;;18.98;;
23080;SDS011;72373;50.562;8.498;2024-03-08T06:38:05;38.97;;;19.20;;
23080;SDS011;72373;50.562;8.498;2024-03-08T06:40:30;39.85;;;19.27;;
23080;SDS011;72373;50.562;8.498;2024-03-08T06:42:56;38.47;;;18.80;;
23080;SDS011;72373;50.562;8.498;2024-03-08T06:45:21;42.50;;;19.02;;
23080;SDS011;72373;50.562;8.498;2024-03-08T06:47:48;36.97;;;18.42;;
23080;SDS011;72373;50.562;8.498;2024-03-08T06:50:14;37.08;;;18.10;;
23080;SDS011;72373;50.562;8.498;2024-03-08T06:52:41;34.50;;;17.73;;
23080;SDS011;72373;50.562;8.498;2024-03-08T06:55:11;35.97;;;17.73;;
23080;SDS011;72373;50.562;8.498;2024-03-08T06:57:40;39.35;;;17.75;;
23080;SDS011;72373;50.562;8.498;2024-03-08T07:00:06;32.83;;;17.20;;
23080;SDS011;72373;50.562;8.498;2024-03-08T07:02:35;33.90;;;17.77;;
23080;SDS011;72373;50.562;8.498;2024-03-08T07:05:01;35.33;;;19.23;;
23080;SDS011;72373;50.562;8.498;2024-03-08T07:07:27;37.53;;;17.80;;
23080;SDS011;72373;50.562;8.498;2024-03-08T07:09:52;35.03;;;17.83;;
23080;SDS011;72373;50.562;8.498;2024-03-08T07:12:19;35.67;;;17.40;;
23080;SDS011;72373;50.562;8.498;2024-03-08T07:14:45;37.28;;;17.25;;
23080;SDS011;72373;50.562;8.498;2024-03-08T07:17:11;35.38;;;17.60;;
23080;SDS011;72373;50.562;8.498;2024-03-08T07:19:37;35.13;;;17.85;;
23080;SDS011;72373;50.562;8.498;2024-03-08T07:22:03;38.08;;;18.67;;
23080;SDS011;72373;50.562;8.498;2024-03-08T07:24:30;35.75;;;18.33;;
23080;SDS011;72373;50.562;8.498;2024-03-08T07:27:20;33.85;;;18.25;;
23080;SDS011;72373;50.562;8.498;2024-03-08T07:29:46;35.47;;;17.75;;
23080;SDS011;72373;50.562;8.498;2024-03-08T07:32:13;35.03;;;17.90;;
23080;SDS011;72373;50.562;8.498;2024-03-08T07:34:49;34.65;;;17.10;;
23080;SDS011;72373;50.562;8.498;2024-03-08T07:37:15;38.00;;;18.75;;
23080;SDS011;72373;50.562;8.498;2024-03-08T07:39:41;37.53;;;17.85;;
23080;SDS011;72373;50.562;8.498;2024-03-08T07:42:08;37.05;;;18.70;;
23080;SDS011;72373;50.562;8.498;2024-03-08T07:44:34;33.08;;;18.15;;
23080;SDS011;72373;50.562;8.498;2024-03-08T07:47:00;38.03;;;19.65;;
23080;SDS011;72373;50.562;8.498;2024-03-08T07:49:26;38.25;;;18.70;;
23080;SDS011;72373;50.562;8.498;2024-03-08T07:51:51;35.28;;;18.45;;
23080;SDS011;72373;50.562;8.498;2024-03-08T07:54:17;34.90;;;17.55;;
23080;SDS011;72373;50.562;8.498;2024-03-08T07:56:42;30.23;;;17.17;;
23080;SDS011;72373;50.562;8.498;2024-03-08T07:59:08;34.03;;;18.38;;
23080;SDS011;72373;50.562;8.498;2024-03-08T08:01:33;30.85;;;17.40;;
23080;SDS011;72373;50.562;8.498;2024-03-08T08:03:59;33.95;;;17.55;;
23080;SDS011;72373;50.562;8.498;2024-03-08T08:06:26;33.38;;;17.40;;
23080;SDS011;72373;50.562;8.498;2024-03-08T08:08:52;32.80;;;18.02;;
23080;SDS011;72373;50.562;8.498;2024-03-08T08:11:18;31.67;;;17.33;;
23080;SDS011;72373;50.562;8.498;2024-03-08T08:13:45;34.63;;;18.55;;
23080;SDS011;72373;50.562;8.498;2024-03-08T08:16:10;29.35;;;17.08;;
23080;SDS011;72373;50.562;8.498;2024-03-08T08:18:38;35.80;;;18.25;;
23080;SDS011;72373;50.562;8.498;2024-03-08T08:21:04;32.17;;;17.63;;
23080;SDS011;72373;50.562;8.498;2024-03-08T08:23:31;33.45;;;17.52;;
23080;SDS011;72373;50.562;8.498;2024-03-08T08:26:00;32.03;;;18.15;;
23080;SDS011;72373;50.562;8.498;2024-03-08T08:28:28;32.92;;;17.75;;
23080;SDS011;72373;50.562;8.498;2024-03-08T08:30:53;33.58;;;18.25;;
23080;SDS011;72373;50.562;8.498;2024-03-08T08:33:19;33.25;;;18.50;;
23080;SDS011;72373;50.562;8.498;2024-03-08T08:35:44;36.20;;;18.15;;
23080;SDS011;72373;50.562;8.498;2024-03-08T08:38:11;34.25;;;17.67;;
23080;SDS011;72373;50.562;8.498;2024-03-08T08:40:37;37.25;;;18.65;;
23080;SDS011;72373;50.562;8.498;2024-03-08T08:43:03;28.95;;;16.80;;
23080;SDS011;72373;50.562;8.498;2024-03-08T08:45:32;33.90;;;17.63;;
23080;SDS011;72373;50.562;8.498;2024-03-08T08:47:58;32.00;;;16.83;;
23080;SDS011;72373;50.562;8.498;2024-03-08T08:50:27;28.80;;;16.60;;
23080;SDS011;72373;50.562;8.498;2024-03-08T08:52:53;31.75;;;16.80;;
23080;SDS011;72373;50.562;8.498;2024-03-08T08:55:19;29.02;;;16.65;;
23080;SDS011;72373;50.562;8.498;2024-03-08T08:57:51;28.38;;;16.63;;
23080;SDS011;72373;50.562;8.498;2024-03-08T09:00:17;32.80;;;16.27;;
23080;SDS011;72373;50.562;8.498;2024-03-08T09:02:45;30.67;;;16.48;;
23080;SDS011;72373;50.562;8.498;2024-03-08T09:05:10;30.63;;;16.50;;
23080;SDS011;72373;50.562;8.498;2024-03-08T09:07:44;32.47;;;18.80;;
23080;SDS011;72373;50.562;8.498;2024-03-08T09:10:10;25.42;;;15.13;;
23080;SDS011;72373;50.562;8.498;2024-03-08T09:12:37;28.42;;;16.70;;
23080;SDS011;72373;50.562;8.498;2024-03-08T09:15:04;28.27;;;17.10;;
23080;SDS011;72373;50.562;8.498;2024-03-08T09:17:30;31.17;;;15.25;;
23080;SDS011;72373;50.562;8.498;2024-03-08T09:19:56;27.95;;;15.90;;
23080;SDS011;72373;50.562;8.498;2024-03-08T09:22:22;28.15;;;15.82;;
23080;SDS011;72373;50.562;8.498;2024-03-08T09:24:48;24.83;;;14.40;;
23080;SDS011;72373;50.562;8.498;2024-03-08T09:27:13;24.95;;;15.05;;
23080;SDS011;72373;50.562;8.498;2024-03-08T09:29:39;24.33;;;13.95;;
23080;SDS011;72373;50.562;8.498;2024-03-08T09:32:05;26.17;;;14.73;;
23080;SDS011;72373;50.562;8.498;2024-03-08T09:34:30;25.23;;;14.25;;
23080;SDS011;72373;50.562;8.498;2024-03-08T09:36:56;25.48;;;14.02;;
23080;SDS011;72373;50.562;8.498;2024-03-08T09:39:22;23.30;;;14.35;;
23080;SDS011;72373;50.562;8.498;2024-03-08T09:41:48;25.48;;;14.52;;
23080;SDS011;72373;50.562;8.498;2024-03-08T09:44:14;23.60;;;12.93;;
23080;SDS011;72373;50.562;8.498;2024-03-08T09:46:40;23.00;;;12.90;;
23080;SDS011;72373;50.562;8.498;2024-03-08T09:49:06;22.42;;;12.27;;
23080;SDS011;72373;50.562;8.498;2024-03-08T09:51:34;23.52;;;13.13;;
23080;SDS011;72373;50.562;8.498;2024-03-08T09:54:06;22.83;;;13.75;;
23080;SDS011;72373;50.562;8.498;2024-03-08T09:56:33;23.45;;;12.73;;
23080;SDS011;72373;50.562;8.498;2024-03-08T09:58:59;27.60;;;14.10;;
23080;SDS011;72373;50.562;8.498;2024-03-08T10:01:30;25.17;;;13.88;;
23080;SDS011;72373;50.562;8.498;2024-03-08T10:03:57;22.20;;;12.98;;
23080;SDS011;72373;50.562;8.498;2024-03-08T10:06:23;23.77;;;14.00;;
23080;SDS011;72373;50.562;8.498;2024-03-08T10:08:49;24.90;;;13.48;;
23080;SDS011;72373;50.562;8.498;2024-03-08T10:11:16;24.20;;;13.43;;
23080;SDS011;72373;50.562;8.498;2024-03-08T10:13:42;20.00;;;12.57;;
23080;SDS011;72373;50.562;8.498;2024-03-08T10:16:11;22.10;;;12.98;;
23080;SDS011;72373;50.562;8.498;2024-03-08T10:18:37;22.75;;;13.48;;
23080;SDS011;72373;50.562;8.498;2024-03-08T10:21:06;25.23;;;14.00;;
23080;SDS011;72373;50.562;8.498;2024-03-08T10:23:35;20.67;;;13.13;;
23080;SDS011;72373;50.562;8.498;2024-03-08T10:26:17;22.38;;;13.75;;
23080;SDS011;72373;50.562;8.498;2024-03-08T10:28:46;20.80;;;14.35;;
23080;SDS011;72373;50.562;8.498;2024-03-08T10:31:16;26.30;;;14.15;;
23080;SDS011;72373;50.562;8.498;2024-03-08T10:33:42;22.42;;;14.57;;
23080;SDS011;72373;50.562;8.498;2024-03-08T10:36:09;24.58;;;14.23;;
23080;SDS011;72373;50.562;8.498;2024-03-08T10:38:37;23.30;;;15.18;;
23080;SDS011;72373;50.562;8.498;2024-03-08T10:41:07;23.08;;;15.13;;
23080;SDS011;72373;50.562;8.498;2024-03-08T10:43:46;19.75;;;13.32;;
23080;SDS011;72373;50.562;8.498;2024-03-08T10:46:38;20.95;;;13.60;;
23080;SDS011;72373;50.562;8.498;2024-03-08T10:52:32;21.90;;;14.25;;
23080;SDS011;72373;50.562;8.498;2024-03-08T10:54:59;23.00;;;15.55;;
23080;SDS011;72373;50.562;8.498;2024-03-08T10:57:27;22.25;;;14.07;;
23080;SDS011;72373;50.562;8.498;2024-03-08T10:59:53;20.45;;;13.30;;
23080;SDS011;72373;50.562;8.498;2024-03-08T11:02:19;21.35;;;14.13;;
23080;SDS011;72373;50.562;8.498;2024-03-08T11:04:48;20.83;;;14.32;;
23080;SDS011;72373;50.562;8.498;2024-03-08T11:07:16;21.27;;;13.90;;
23080;SDS011;72373;50.562;8.498;2024-03-08T11:09:43;21.27;;;13.93;;
23080;SDS011;72373;50.562;8.498;2024-03-08T11:12:20;20.27;;;13.48;;
23080;SDS011;72373;50.562;8.498;2024-03-08T11:14:50;17.63;;;12.25;;
23080;SDS011;72373;50.562;8.498;2024-03-08T11:19:57;20.08;;;13.73;;
23080;SDS011;72373;50.562;8.498;2024-03-08T11:22:32;20.60;;;13.20;;
23080;SDS011;72373;50.562;8.498;2024-03-08T11:25:01;14.95;;;10.82;;
23080;SDS011;72373;50.562;8.498;2024-03-08T11:27:28;14.90;;;10.20;;
23080;SDS011;72373;50.562;8.498;2024-03-08T11:30:01;17.08;;;11.55;;
23080;SDS011;72373;50.562;8.498;2024-03-08T11:32:37;13.93;;;9.82;;
23080;SDS011;72373;50.562;8.498;2024-03-08T11:35:07;14.30;;;10.30;;
23080;SDS011;72373;50.562;8.498;2024-03-08T11:37:43;13.50;;;9.93;;
23080;SDS011;72373;50.562;8.498;2024-03-08T11:40:12;16.05;;;10.18;;
23080;SDS011;72373;50.562;8.498;2024-03-08T11:42:47;12.38;;;9.18;;
23080;SDS011;72373;50.562;8.498;2024-03-08T11:45:14;13.43;;;9.50;;
23080;SDS011;72373;50.562;8.498;2024-03-08T11:47:42;12.48;;;9.45;;
23080;SDS011;72373;50.562;8.498;2024-03-08T11:50:11;13.38;;;9.52;;
23080;SDS011;72373;50.562;8.498;2024-03-08T11:52:37;14.13;;;9.70;;
23080;SDS011;72373;50.562;8.498;2024-03-08T11:55:03;12.77;;;9.15;;
23080;SDS011;72373;50.562;8.498;2024-03-08T11:57:30;13.90;;;9.25;;
23080;SDS011;72373;50.562;8.498;2024-03-08T11:59:57;12.48;;;8.93;;
23080;SDS011;72373;50.562;8.498;2024-03-08T12:02:24;14.70;;;9.65;;
23080;SDS011;72373;50.562;8.498;2024-03-08T12:04:57;13.05;;;9.77;;
23080;SDS011;72373;50.562;8.498;2024-03-08T12:07:24;12.73;;;9.75;;
23080;SDS011;72373;50.562;8.498;2024-03-08T12:12:44;11.88;;;9.38;;
23080;SDS011;72373;50.562;8.498;2024-03-08T12:15:15;13.90;;;9.93;;
23080;SDS011;72373;50.562;8.498;2024-03-08T12:17:43;13.32;;;9.48;;
23080;SDS011;72373;50.562;8.498;2024-03-08T12:20:14;14.05;;;10.18;;
23080;SDS011;72373;50.562;8.498;2024-03-08T12:22:46;14.02;;;9.75;;
23080;SDS011;72373;50.562;8.498;2024-03-08T12:25:12;14.40;;;9.80;;
23080;SDS011;72373;50.562;8.498;2024-03-08T12:27:39;14.73;;;9.45;;
23080;SDS011;72373;50.562;8.498;2024-03-08T12:32:59;14.15;;;9.30;;
23080;SDS011;72373;50.562;8.498;2024-03-08T12:35:26;13.68;;;9.25;;
23080;SDS011;72373;50.562;8.498;2024-03-08T12:37:53;13.50;;;9.60;;
23080;SDS011;72373;50.562;8.498;2024-03-08T12:40:30;14.02;;;9.95;;
23080;SDS011;72373;50.562;8.498;2024-03-08T12:42:57;14.70;;;10.10;;
23080;SDS011;72373;50.562;8.498;2024-03-08T12:45:24;16.70;;;9.80;;
23080;SDS011;72373;50.562;8.498;2024-03-08T12:47:50;14.88;;;9.82;;
23080;SDS011;72373;50.562;8.498;2024-03-08T12:50:17;16.55;;;10.65;;
23080;SDS011;72373;50.562;8.498;2024-03-08T12:52:42;17.38;;;10.40;;
23080;SDS011;72373;50.562;8.498;2024-03-08T12:55:08;15.13;;;9.32;;
23080;SDS011;72373;50.562;8.498;2024-03-08T12:57:34;14.27;;;9.85;;
23080;SDS011;72373;50.562;8.498;2024-03-08T13:00:03;15.13;;;9.88;;
23080;SDS011;72373;50.562;8.498;2024-03-08T13:02:29;17.42;;;10.50;;
23080;SDS011;72373;50.562;8.498;2024-03-08T13:04:57;19.10;;;10.13;;
23080;SDS011;72373;50.562;8.498;2024-03-08T13:07:23;15.90;;;9.70;;
23080;SDS011;72373;50.562;8.498;2024-03-08T13:09:51;17.90;;;10.55;;
23080;SDS011;72373;50.562;8.498;2024-03-08T13:12:18;20.85;;;9.80;;
23080;SDS011;72373;50.562;8.498;2024-03-08T13:14:45;17.13;;;10.10;;
23080;SDS011;72373;50.562;8.498;2024-03-08T13:17:11;17.02;;;10.23;;
23080;SDS011;72373;50.562;8.498;2024-03-08T13:19:37;16.45;;;9.75;;
23080;SDS011;72373;50.562;8.498;2024-03-08T13:22:03;18.80;;;10.88;;
23080;SDS011;72373;50.562;8.498;2024-03-08T13:24:29;18.80;;;11.13;;
23080;SDS011;72373;50.562;8.498;2024-03-08T13:26:55;19.60;;;11.57;;
23080;SDS011;72373;50.562;8.498;2024-03-08T13:29:21;16.45;;;10.75;;
23080;SDS011;72373;50.562;8.498;2024-03-08T13:31:47;17.88;;;10.77;;
23080;SDS011;72373;50.562;8.498;2024-03-08T13:34:16;18.42;;;10.55;;
23080;SDS011;72373;50.562;8.498;2024-03-08T13:36:42;17.42;;;10.80;;
23080;SDS011;72373;50.562;8.498;2024-03-08T13:39:09;18.83;;;11.07;;
23080;SDS011;72373;50.562;8.498;2024-03-08T13:41:41;15.90;;;10.55;;
23080;SDS011;72373;50.562;8.498;2024-03-08T13:44:06;18.85;;;11.40;;
23080;SDS011;72373;50.562;8.498;2024-03-08T13:46:32;20.05;;;11.80;;
23080;SDS011;72373;50.562;8.498;2024-03-08T13:49:03;17.45;;;11.00;;
23080;SDS011;72373;50.562;8.498;2024-03-08T13:51:36;19.95;;;11.43;;
23080;SDS011;72373;50.562;8.498;2024-03-08T13:54:01;18.63;;;11.50;;
23080;SDS011;72373;50.562;8.498;2024-03-08T13:56:27;17.67;;;10.15;;
23080;SDS011;72373;50.562;8.498;2024-03-08T13:58:56;17.17;;;10.73;;
23080;SDS011;72373;50.562;8.498;2024-03-08T14:01:22;21.15;;;11.20;;
23080;SDS011;72373;50.562;8.498;2024-03-08T14:03:48;20.38;;;11.40;;
23080;SDS011;72373;50.562;8.498;2024-03-08T14:06:13;18.77;;;11.13;;
23080;SDS011;72373;50.562;8.498;2024-03-08T14:08:39;19.45;;;11.98;;
23080;SDS011;72373;50.562;8.498;2024-03-08T14:11:05;19.60;;;11.73;;
23080;SDS011;72373;50.562;8.498;2024-03-08T14:13:40;18.50;;;11.18;;
23080;SDS011;72373;50.562;8.498;2024-03-08T14:16:10;20.55;;;12.10;;
23080;SDS011;72373;50.562;8.498;2024-03-08T14:18:36;18.20;;;11.00;;
23080;SDS011;72373;50.562;8.498;2024-03-08T14:21:02;19.58;;;11.32;;
23080;SDS011;72373;50.562;8.498;2024-03-08T14:23:29;18.35;;;12.00;;
23080;SDS011;72373;50.562;8.498;2024-03-08T14:25:54;21.92;;;11.73;;
23080;SDS011;72373;50.562;8.498;2024-03-08T14:28:20;19.45;;;12.10;;
23080;SDS011;72373;50.562;8.498;2024-03-08T14:30:47;23.35;;;12.38;;
23080;SDS011;72373;50.562;8.498;2024-03-08T14:33:13;20.35;;;11.73;;
23080;SDS011;72373;50.562;8.498;2024-03-08T14:35:39;18.65;;;10.73;;